sensor_id;sensor_type;location;lat;lon;timestamp;P1;durP1;ratioP1;P2;durP2;ratioP2
14187;SDS011;7175;51.978;5.330;2023-05-10T00:00:45;138.77;;;127.77;;
14187;SDS011;7175;51.978;5.330;2023-05-10T00:03:14;135.47;;;124.60;;
14187;SDS011;7175;51.978;5.330;2023-05-10T00:05:42;132.57;;;122.17;;
14187;SDS011;7175;51.978;5.330;2023-05-10T00:08:10;133.87;;;123.37;;
14187;SDS011;7175;51.978;5.330;2023-05-10T00:10:38;135.47;;;124.80;;
14187;SDS011;7175;51.978;5.330;2023-05-10T00:13:08;138.60;;;127.77;;
14187;SDS011;7175;51.978;5.330;2023-05-10T00:15:36;138.37;;;127.57;;
14187;SDS011;7175;51.978;5.330;2023-05-10T00:18:04;132.93;;;122.43;;
14187;SDS011;7175;51.978;5.330;2023-05-10T00:20:33;132.50;;;121.53;;
14187;SDS011;7175;51.978;5.330;2023-05-10T00:23:01;135.57;;;125.07;;
14187;SDS011;7175;51.978;5.330;2023-05-10T00:25:29;136.20;;;125.23;;
14187;SDS011;7175;51.978;5.330;2023-05-10T00:27:57;132.57;;;122.47;;
14187;SDS011;7175;51.978;5.330;2023-05-10T00:30:29;137.37;;;126.73;;
14187;SDS011;7175;51.978;5.330;2023-05-10T00:32:57;132.33;;;121.97;;
14187;SDS011;7175;51.978;5.330;2023-05-10T00:35:25;137.50;;;126.60;;
14187;SDS011;7175;51.978;5.330;2023-05-10T00:37:53;135.33;;;124.90;;
14187;SDS011;7175;51.978;5.330;2023-05-10T00:40:21;134.00;;;123.70;;
14187;SDS011;7175;51.978;5.330;2023-05-10T00:42:50;137.80;;;127.33;;
14187;SDS011;7175;51.978;5.330;2023-05-10T00:45:18;136.50;;;126.00;;
14187;SDS011;7175;51.978;5.330;2023-05-10T00:47:47;136.50;;;125.87;;
14187;SDS011;7175;51.978;5.330;2023-05-10T00:50:15;139.70;;;128.90;;
14187;SDS011;7175;51.978;5.330;2023-05-10T00:52:44;141.27;;;130.63;;
14187;SDS011;7175;51.978;5.330;2023-05-10T00:55:12;141.70;;;130.90;;
14187;SDS011;7175;51.978;5.330;2023-05-10T00:57:40;141.83;;;130.80;;
14187;SDS011;7175;51.978;5.330;2023-05-10T01:00:10;138.87;;;128.17;;
14187;SDS011;7175;51.978;5.330;2023-05-10T01:02:39;141.03;;;129.93;;
14187;SDS011;7175;51.978;5.330;2023-05-10T01:05:10;137.47;;;126.77;;
14187;SDS011;7175;51.978;5.330;2023-05-10T01:07:38;135.70;;;125.50;;
14187;SDS011;7175;51.978;5.330;2023-05-10T01:10:07;136.63;;;126.37;;
14187;SDS011;7175;51.978;5.330;2023-05-10T01:12:38;137.50;;;127.00;;
14187;SDS011;7175;51.978;5.330;2023-05-10T01:15:08;137.77;;;127.20;;
14187;SDS011;7175;51.978;5.330;2023-05-10T01:17:38;139.17;;;128.37;;
14187;SDS011;7175;51.978;5.330;2023-05-10T01:20:11;139.30;;;128.47;;
14187;SDS011;7175;51.978;5.330;2023-05-10T01:28:49;142.60;;;131.70;;
14187;SDS011;7175;51.978;5.330;2023-05-10T01:31:37;140.73;;;129.63;;
14187;SDS011;7175;51.978;5.330;2023-05-10T01:34:31;139.77;;;128.97;;
14187;SDS011;7175;51.978;5.330;2023-05-10T01:37:04;139.87;;;129.13;;
14187;SDS011;7175;51.978;5.330;2023-05-10T01:39:37;141.33;;;130.40;;
14187;SDS011;7175;51.978;5.330;2023-05-10T01:42:12;139.03;;;128.50;;
14187;SDS011;7175;51.978;5.330;2023-05-10T01:44:46;136.97;;;126.27;;
14187;SDS011;7175;51.978;5.330;2023-05-10T01:47:25;141.80;;;131.07;;
14187;SDS011;7175;51.978;5.330;2023-05-10T01:50:01;139.33;;;128.57;;
14187;SDS011;7175;51.978;5.330;2023-05-10T01:52:33;137.90;;;127.43;;
14187;SDS011;7175;51.978;5.330;2023-05-10T01:55:06;142.70;;;131.87;;
14187;SDS011;7175;51.978;5.330;2023-05-10T01:57:37;138.90;;;128.30;;
14187;SDS011;7175;51.978;5.330;2023-05-10T02:00:07;138.43;;;127.73;;
14187;SDS011;7175;51.978;5.330;2023-05-10T02:02:38;139.13;;;128.17;;
14187;SDS011;7175;51.978;5.330;2023-05-10T02:05:08;138.60;;;127.90;;
14187;SDS011;7175;51.978;5.330;2023-05-10T02:07:38;136.50;;;125.90;;
14187;SDS011;7175;51.978;5.330;2023-05-10T02:10:09;137.70;;;127.00;;
14187;SDS011;7175;51.978;5.330;2023-05-10T02:12:39;136.83;;;126.13;;
14187;SDS011;7175;51.978;5.330;2023-05-10T02:15:10;137.30;;;126.47;;
14187;SDS011;7175;51.978;5.330;2023-05-10T02:17:41;137.50;;;126.67;;
14187;SDS011;7175;51.978;5.330;2023-05-10T02:20:10;137.60;;;126.80;;
14187;SDS011;7175;51.978;5.330;2023-05-10T02:22:40;136.10;;;125.60;;
14187;SDS011;7175;51.978;5.330;2023-05-10T02:25:10;135.47;;;124.97;;
14187;SDS011;7175;51.978;5.330;2023-05-10T02:27:39;137.13;;;126.53;;
14187;SDS011;7175;51.978;5.330;2023-05-10T02:30:10;135.67;;;124.97;;
14187;SDS011;7175;51.978;5.330;2023-05-10T02:32:42;132.73;;;122.37;;
14187;SDS011;7175;51.978;5.330;2023-05-10T02:35:11;133.53;;;123.07;;
14187;SDS011;7175;51.978;5.330;2023-05-10T02:37:40;133.13;;;122.77;;
14187;SDS011;7175;51.978;5.330;2023-05-10T02:40:09;132.87;;;122.53;;
14187;SDS011;7175;51.978;5.330;2023-05-10T02:42:38;132.13;;;121.73;;
14187;SDS011;7175;51.978;5.330;2023-05-10T02:45:11;137.50;;;127.10;;
14187;SDS011;7175;51.978;5.330;2023-05-10T02:47:44;135.37;;;124.20;;
14187;SDS011;7175;51.978;5.330;2023-05-10T02:50:12;131.40;;;121.50;;
14187;SDS011;7175;51.978;5.330;2023-05-10T02:52:42;134.53;;;124.53;;
14187;SDS011;7175;51.978;5.330;2023-05-10T02:55:12;132.43;;;122.63;;
14187;SDS011;7175;51.978;5.330;2023-05-10T02:57:45;136.83;;;126.77;;
14187;SDS011;7175;51.978;5.330;2023-05-10T03:00:18;131.57;;;121.77;;
14187;SDS011;7175;51.978;5.330;2023-05-10T03:02:48;132.83;;;122.93;;
14187;SDS011;7175;51.978;5.330;2023-05-10T03:05:16;132.93;;;123.13;;
14187;SDS011;7175;51.978;5.330;2023-05-10T03:07:44;130.10;;;120.60;;
14187;SDS011;7175;51.978;5.330;2023-05-10T03:10:13;133.43;;;123.63;;
14187;SDS011;7175;51.978;5.330;2023-05-10T03:12:46;136.80;;;125.40;;
14187;SDS011;7175;51.978;5.330;2023-05-10T03:15:25;132.80;;;123.00;;
14187;SDS011;7175;51.978;5.330;2023-05-10T03:18:04;136.00;;;125.97;;
14187;SDS011;7175;51.978;5.330;2023-05-10T03:20:36;139.67;;;129.47;;
14187;SDS011;7175;51.978;5.330;2023-05-10T03:23:07;138.50;;;128.30;;
14187;SDS011;7175;51.978;5.330;2023-05-10T03:25:41;139.47;;;129.17;;
14187;SDS011;7175;51.978;5.330;2023-05-10T03:28:11;136.00;;;125.70;;
14187;SDS011;7175;51.978;5.330;2023-05-10T03:30:40;133.33;;;123.37;;
14187;SDS011;7175;51.978;5.330;2023-05-10T03:33:10;132.57;;;122.73;;
14187;SDS011;7175;51.978;5.330;2023-05-10T03:35:39;131.70;;;122.00;;
14187;SDS011;7175;51.978;5.330;2023-05-10T03:38:07;130.63;;;120.93;;
14187;SDS011;7175;51.978;5.330;2023-05-10T03:40:35;131.60;;;121.90;;
14187;SDS011;7175;51.978;5.330;2023-05-10T03:43:03;132.80;;;122.70;;
14187;SDS011;7175;51.978;5.330;2023-05-10T03:45:31;130.40;;;120.70;;
14187;SDS011;7175;51.978;5.330;2023-05-10T03:47:59;131.57;;;121.87;;
14187;SDS011;7175;51.978;5.330;2023-05-10T03:50:29;128.30;;;118.70;;
14187;SDS011;7175;51.978;5.330;2023-05-10T03:52:57;130.77;;;121.27;;
14187;SDS011;7175;51.978;5.330;2023-05-10T03:55:25;130.57;;;121.07;;
14187;SDS011;7175;51.978;5.330;2023-05-10T03:57:54;133.00;;;123.40;;
14187;SDS011;7175;51.978;5.330;2023-05-10T04:00:22;128.63;;;119.23;;
14187;SDS011;7175;51.978;5.330;2023-05-10T04:02:50;131.93;;;122.33;;
14187;SDS011;7175;51.978;5.330;2023-05-10T04:05:19;132.27;;;122.60;;
14187;SDS011;7175;51.978;5.330;2023-05-10T04:07:48;134.87;;;124.67;;
14187;SDS011;7175;51.978;5.330;2023-05-10T04:10:17;131.43;;;121.53;;
14187;SDS011;7175;51.978;5.330;2023-05-10T04:12:45;133.57;;;123.50;;
14187;SDS011;7175;51.978;5.330;2023-05-10T04:15:13;132.53;;;122.53;;
14187;SDS011;7175;51.978;5.330;2023-05-10T04:17:42;122.70;;;113.33;;
14187;SDS011;7175;51.978;5.330;2023-05-10T04:20:10;128.70;;;118.83;;
14187;SDS011;7175;51.978;5.330;2023-05-10T04:22:39;129.20;;;119.50;;
14187;SDS011;7175;51.978;5.330;2023-05-10T04:25:09;128.97;;;119.03;;
14187;SDS011;7175;51.978;5.330;2023-05-10T04:27:38;129.17;;;119.37;;
14187;SDS011;7175;51.978;5.330;2023-05-10T04:30:06;126.93;;;117.47;;
14187;SDS011;7175;51.978;5.330;2023-05-10T04:32:35;124.30;;;114.90;;
14187;SDS011;7175;51.978;5.330;2023-05-10T04:35:03;124.23;;;114.97;;
14187;SDS011;7175;51.978;5.330;2023-05-10T04:37:32;124.87;;;115.50;;
14187;SDS011;7175;51.978;5.330;2023-05-10T04:40:00;121.60;;;112.33;;
14187;SDS011;7175;51.978;5.330;2023-05-10T04:42:31;129.13;;;119.20;;
14187;SDS011;7175;51.978;5.330;2023-05-10T04:44:59;128.80;;;118.70;;
14187;SDS011;7175;51.978;5.330;2023-05-10T04:47:27;127.27;;;117.17;;
14187;SDS011;7175;51.978;5.330;2023-05-10T04:49:56;125.00;;;114.70;;
14187;SDS011;7175;51.978;5.330;2023-05-10T04:52:24;131.17;;;120.90;;
14187;SDS011;7175;51.978;5.330;2023-05-10T04:54:52;125.80;;;116.00;;
14187;SDS011;7175;51.978;5.330;2023-05-10T04:57:20;132.60;;;122.50;;
14187;SDS011;7175;51.978;5.330;2023-05-10T04:59:50;132.70;;;121.43;;
14187;SDS011;7175;51.978;5.330;2023-05-10T05:02:18;127.47;;;117.10;;
14187;SDS011;7175;51.978;5.330;2023-05-10T05:04:46;130.90;;;121.10;;
14187;SDS011;7175;51.978;5.330;2023-05-10T05:07:14;134.00;;;123.57;;
14187;SDS011;7175;51.978;5.330;2023-05-10T05:09:43;131.67;;;121.87;;
14187;SDS011;7175;51.978;5.330;2023-05-10T05:12:11;127.03;;;117.43;;
14187;SDS011;7175;51.978;5.330;2023-05-10T05:14:40;128.43;;;118.73;;
14187;SDS011;7175;51.978;5.330;2023-05-10T05:17:10;126.40;;;116.97;;
14187;SDS011;7175;51.978;5.330;2023-05-10T05:19:38;121.67;;;112.57;;
14187;SDS011;7175;51.978;5.330;2023-05-10T05:22:06;127.37;;;116.70;;
14187;SDS011;7175;51.978;5.330;2023-05-10T05:24:35;112.50;;;104.00;;
14187;SDS011;7175;51.978;5.330;2023-05-10T05:27:04;119.43;;;110.27;;
14187;SDS011;7175;51.978;5.330;2023-05-10T05:29:33;120.87;;;111.67;;
14187;SDS011;7175;51.978;5.330;2023-05-10T05:32:01;116.60;;;107.80;;
14187;SDS011;7175;51.978;5.330;2023-05-10T05:34:31;118.67;;;109.47;;
14187;SDS011;7175;51.978;5.330;2023-05-10T05:36:59;121.37;;;112.17;;
14187;SDS011;7175;51.978;5.330;2023-05-10T05:39:27;116.23;;;107.23;;
14187;SDS011;7175;51.978;5.330;2023-05-10T05:41:55;119.80;;;110.50;;
14187;SDS011;7175;51.978;5.330;2023-05-10T05:44:24;117.20;;;108.10;;
14187;SDS011;7175;51.978;5.330;2023-05-10T05:46:55;122.50;;;112.63;;
14187;SDS011;7175;51.978;5.330;2023-05-10T05:49:23;118.67;;;109.37;;
14187;SDS011;7175;51.978;5.330;2023-05-10T05:51:52;122.23;;;112.40;;
14187;SDS011;7175;51.978;5.330;2023-05-10T05:54:21;115.77;;;106.57;;
14187;SDS011;7175;51.978;5.330;2023-05-10T05:56:49;126.83;;;117.03;;
14187;SDS011;7175;51.978;5.330;2023-05-10T05:59:17;123.47;;;113.37;;
14187;SDS011;7175;51.978;5.330;2023-05-10T06:01:45;125.60;;;115.40;;
14187;SDS011;7175;51.978;5.330;2023-05-10T06:04:13;125.10;;;115.40;;
14187;SDS011;7175;51.978;5.330;2023-05-10T06:06:42;119.07;;;109.93;;
14187;SDS011;7175;51.978;5.330;2023-05-10T06:09:11;119.00;;;109.90;;
14187;SDS011;7175;51.978;5.330;2023-05-10T06:11:39;119.60;;;109.80;;
14187;SDS011;7175;51.978;5.330;2023-05-10T06:14:08;122.60;;;113.30;;
14187;SDS011;7175;51.978;5.330;2023-05-10T06:16:36;136.53;;;126.03;;
14187;SDS011;7175;51.978;5.330;2023-05-10T06:19:04;129.33;;;119.83;;
14187;SDS011;7175;51.978;5.330;2023-05-10T06:21:32;127.73;;;118.13;;
14187;SDS011;7175;51.978;5.330;2023-05-10T06:24:00;122.07;;;112.47;;
14187;SDS011;7175;51.978;5.330;2023-05-10T06:26:30;119.47;;;110.00;;
14187;SDS011;7175;51.978;5.330;2023-05-10T06:28:58;117.10;;;107.60;;
14187;SDS011;7175;51.978;5.330;2023-05-10T06:31:27;112.50;;;103.43;;
14187;SDS011;7175;51.978;5.330;2023-05-10T06:33:55;107.97;;;99.37;;
14187;SDS011;7175;51.978;5.330;2023-05-10T06:36:24;108.23;;;99.57;;
14187;SDS011;7175;51.978;5.330;2023-05-10T06:38:52;113.93;;;105.00;;
14187;SDS011;7175;51.978;5.330;2023-05-10T06:41:21;117.17;;;108.07;;
14187;SDS011;7175;51.978;5.330;2023-05-10T06:43:51;114.10;;;105.37;;
14187;SDS011;7175;51.978;5.330;2023-05-10T06:46:20;115.90;;;106.73;;
14187;SDS011;7175;51.978;5.330;2023-05-10T06:48:48;113.97;;;105.37;;
14187;SDS011;7175;51.978;5.330;2023-05-10T06:51:16;111.83;;;103.47;;
14187;SDS011;7175;51.978;5.330;2023-05-10T06:53:44;115.90;;;107.20;;
14187;SDS011;7175;51.978;5.330;2023-05-10T06:56:12;117.67;;;108.97;;
14187;SDS011;7175;51.978;5.330;2023-05-10T06:58:41;115.10;;;106.43;;
14187;SDS011;7175;51.978;5.330;2023-05-10T07:01:10;117.00;;;108.30;;
14187;SDS011;7175;51.978;5.330;2023-05-10T07:03:39;116.20;;;107.67;;
14187;SDS011;7175;51.978;5.330;2023-05-10T07:06:07;111.60;;;103.40;;
14187;SDS011;7175;51.978;5.330;2023-05-10T07:08:55;108.40;;;100.40;;
14187;SDS011;7175;51.978;5.330;2023-05-10T07:11:23;110.00;;;101.17;;
14187;SDS011;7175;51.978;5.330;2023-05-10T07:13:52;100.17;;;92.97;;
14187;SDS011;7175;51.978;5.330;2023-05-10T07:16:21;99.10;;;91.90;;
14187;SDS011;7175;51.978;5.330;2023-05-10T07:18:50;99.70;;;92.60;;
14187;SDS011;7175;51.978;5.330;2023-05-10T07:21:19;95.87;;;88.97;;
14187;SDS011;7175;51.978;5.330;2023-05-10T07:23:50;92.20;;;85.60;;
14187;SDS011;7175;51.978;5.330;2023-05-10T07:26:18;91.07;;;84.47;;
14187;SDS011;7175;51.978;5.330;2023-05-10T07:28:48;79.80;;;74.20;;
14187;SDS011;7175;51.978;5.330;2023-05-10T07:31:16;78.37;;;72.93;;
14187;SDS011;7175;51.978;5.330;2023-05-10T07:33:46;76.03;;;70.73;;
14187;SDS011;7175;51.978;5.330;2023-05-10T07:36:14;74.63;;;69.43;;
14187;SDS011;7175;51.978;5.330;2023-05-10T07:38:42;69.23;;;64.27;;
14187;SDS011;7175;51.978;5.330;2023-05-10T07:41:10;68.50;;;63.80;;
14187;SDS011;7175;51.978;5.330;2023-05-10T07:43:39;64.17;;;59.77;;
14187;SDS011;7175;51.978;5.330;2023-05-10T07:46:07;58.37;;;54.20;;
14187;SDS011;7175;51.978;5.330;2023-05-10T07:48:36;50.77;;;46.50;;
14187;SDS011;7175;51.978;5.330;2023-05-10T07:51:07;47.60;;;44.00;;
14187;SDS011;7175;51.978;5.330;2023-05-10T07:53:35;44.30;;;40.90;;
14187;SDS011;7175;51.978;5.330;2023-05-10T07:56:20;42.60;;;39.30;;
14187;SDS011;7175;51.978;5.330;2023-05-10T07:58:49;36.33;;;33.43;;
14187;SDS011;7175;51.978;5.330;2023-05-10T08:01:17;36.30;;;33.40;;
14187;SDS011;7175;51.978;5.330;2023-05-10T08:03:46;33.83;;;31.13;;
14187;SDS011;7175;51.978;5.330;2023-05-10T08:06:16;30.40;;;27.90;;
14187;SDS011;7175;51.978;5.330;2023-05-10T08:08:45;29.27;;;26.77;;
14187;SDS011;7175;51.978;5.330;2023-05-10T08:11:16;28.20;;;25.80;;
14187;SDS011;7175;51.978;5.330;2023-05-10T08:13:45;25.93;;;23.63;;
14187;SDS011;7175;51.978;5.330;2023-05-10T08:16:13;26.60;;;23.90;;
14187;SDS011;7175;51.978;5.330;2023-05-10T08:18:42;25.93;;;23.63;;
14187;SDS011;7175;51.978;5.330;2023-05-10T08:21:13;26.57;;;24.27;;
14187;SDS011;7175;51.978;5.330;2023-05-10T08:23:43;28.50;;;26.00;;
14187;SDS011;7175;51.978;5.330;2023-05-10T08:26:11;29.10;;;26.60;;
14187;SDS011;7175;51.978;5.330;2023-05-10T08:28:39;27.33;;;25.03;;
14187;SDS011;7175;51.978;5.330;2023-05-10T08:31:07;28.60;;;26.20;;
14187;SDS011;7175;51.978;5.330;2023-05-10T08:33:36;28.00;;;25.60;;
14187;SDS011;7175;51.978;5.330;2023-05-10T08:36:04;28.30;;;25.90;;
14187;SDS011;7175;51.978;5.330;2023-05-10T08:38:34;29.80;;;27.10;;
14187;SDS011;7175;51.978;5.330;2023-05-10T08:41:03;28.70;;;26.30;;
14187;SDS011;7175;51.978;5.330;2023-05-10T08:43:32;27.40;;;25.10;;
14187;SDS011;7175;51.978;5.330;2023-05-10T08:46:03;26.73;;;24.43;;
14187;SDS011;7175;51.978;5.330;2023-05-10T08:48:32;26.50;;;24.20;;
14187;SDS011;7175;51.978;5.330;2023-05-10T08:51:02;26.77;;;24.47;;
14187;SDS011;7175;51.978;5.330;2023-05-10T08:53:33;26.70;;;24.43;;
14187;SDS011;7175;51.978;5.330;2023-05-10T08:56:04;25.70;;;23.50;;
14187;SDS011;7175;51.978;5.330;2023-05-10T08:58:33;25.90;;;23.70;;
14187;SDS011;7175;51.978;5.330;2023-05-10T09:01:01;25.87;;;23.67;;
14187;SDS011;7175;51.978;5.330;2023-05-10T09:03:31;26.10;;;23.90;;
14187;SDS011;7175;51.978;5.330;2023-05-10T09:05:59;28.33;;;25.83;;
14187;SDS011;7175;51.978;5.330;2023-05-10T09:08:27;26.00;;;23.80;;
14187;SDS011;7175;51.978;5.330;2023-05-10T09:10:58;25.50;;;23.30;;
14187;SDS011;7175;51.978;5.330;2023-05-10T09:13:29;25.43;;;23.20;;
14187;SDS011;7175;51.978;5.330;2023-05-10T09:15:58;24.50;;;22.40;;
14187;SDS011;7175;51.978;5.330;2023-05-10T09:18:39;23.97;;;21.97;;
14187;SDS011;7175;51.978;5.330;2023-05-10T09:21:07;24.30;;;22.30;;
14187;SDS011;7175;51.978;5.330;2023-05-10T09:23:36;24.47;;;22.17;;
14187;SDS011;7175;51.978;5.330;2023-05-10T09:26:05;22.97;;;21.07;;
14187;SDS011;7175;51.978;5.330;2023-05-10T09:28:34;23.67;;;21.67;;
14187;SDS011;7175;51.978;5.330;2023-05-10T09:31:18;25.20;;;23.10;;
14187;SDS011;7175;51.978;5.330;2023-05-10T09:33:47;25.30;;;23.20;;
14187;SDS011;7175;51.978;5.330;2023-05-10T09:36:16;24.00;;;22.00;;
14187;SDS011;7175;51.978;5.330;2023-05-10T09:38:45;24.27;;;22.27;;
14187;SDS011;7175;51.978;5.330;2023-05-10T09:41:17;22.93;;;21.00;;
14187;SDS011;7175;51.978;5.330;2023-05-10T09:43:46;22.47;;;20.57;;
14187;SDS011;7175;51.978;5.330;2023-05-10T09:46:15;23.37;;;21.37;;
14187;SDS011;7175;51.978;5.330;2023-05-10T09:48:44;22.97;;;21.07;;
14187;SDS011;7175;51.978;5.330;2023-05-10T09:51:19;23.07;;;21.17;;
14187;SDS011;7175;51.978;5.330;2023-05-10T09:53:48;22.40;;;20.50;;
14187;SDS011;7175;51.978;5.330;2023-05-10T09:56:37;21.73;;;19.93;;
14187;SDS011;7175;51.978;5.330;2023-05-10T09:59:07;21.13;;;19.37;;
14187;SDS011;7175;51.978;5.330;2023-05-10T10:01:37;20.70;;;19.00;;
14187;SDS011;7175;51.978;5.330;2023-05-10T10:04:07;20.70;;;19.00;;
14187;SDS011;7175;51.978;5.330;2023-05-10T10:06:37;20.60;;;18.90;;
14187;SDS011;7175;51.978;5.330;2023-05-10T10:09:06;20.93;;;19.23;;
14187;SDS011;7175;51.978;5.330;2023-05-10T10:11:37;20.60;;;18.90;;
14187;SDS011;7175;51.978;5.330;2023-05-10T10:14:07;20.47;;;18.77;;
14187;SDS011;7175;51.978;5.330;2023-05-10T10:16:36;20.57;;;18.77;;
14187;SDS011;7175;51.978;5.330;2023-05-10T10:19:21;20.03;;;18.33;;
14187;SDS011;7175;51.978;5.330;2023-05-10T10:21:49;20.03;;;18.33;;
14187;SDS011;7175;51.978;5.330;2023-05-10T10:24:17;20.13;;;18.43;;
14187;SDS011;7175;51.978;5.330;2023-05-10T10:26:47;19.87;;;18.17;;
14187;SDS011;7175;51.978;5.330;2023-05-10T10:29:21;19.53;;;17.83;;
14187;SDS011;7175;51.978;5.330;2023-05-10T10:31:55;19.80;;;18.10;;
14187;SDS011;7175;51.978;5.330;2023-05-10T10:34:38;18.97;;;17.37;;
14187;SDS011;7175;51.978;5.330;2023-05-10T10:37:06;19.60;;;18.00;;
14187;SDS011;7175;51.978;5.330;2023-05-10T10:39:35;19.73;;;18.13;;
14187;SDS011;7175;51.978;5.330;2023-05-10T10:42:04;19.40;;;17.80;;
14187;SDS011;7175;51.978;5.330;2023-05-10T10:44:36;20.20;;;18.50;;
14187;SDS011;7175;51.978;5.330;2023-05-10T10:47:06;19.30;;;17.70;;
14187;SDS011;7175;51.978;5.330;2023-05-10T10:49:44;19.40;;;17.80;;
14187;SDS011;7175;51.978;5.330;2023-05-10T10:52:21;19.77;;;18.07;;
14187;SDS011;7175;51.978;5.330;2023-05-10T10:54:54;19.67;;;18.07;;
14187;SDS011;7175;51.978;5.330;2023-05-10T10:57:28;19.97;;;18.27;;
14187;SDS011;7175;51.978;5.330;2023-05-10T11:02:59;20.20;;;18.50;;
14187;SDS011;7175;51.978;5.330;2023-05-10T11:05:34;19.80;;;18.20;;
14187;SDS011;7175;51.978;5.330;2023-05-10T11:08:07;19.87;;;18.27;;
14187;SDS011;7175;51.978;5.330;2023-05-10T11:10:51;20.60;;;18.80;;
14187;SDS011;7175;51.978;5.330;2023-05-10T11:13:29;19.93;;;18.23;;
14187;SDS011;7175;51.978;5.330;2023-05-10T11:15:59;20.07;;;18.37;;
14187;SDS011;7175;51.978;5.330;2023-05-10T11:18:39;20.27;;;18.57;;
14187;SDS011;7175;51.978;5.330;2023-05-10T11:21:08;19.70;;;18.00;;
14187;SDS011;7175;51.978;5.330;2023-05-10T11:23:50;21.23;;;19.43;;
14187;SDS011;7175;51.978;5.330;2023-05-10T11:26:22;20.30;;;18.60;;
14187;SDS011;7175;51.978;5.330;2023-05-10T11:28:53;19.67;;;18.00;;
14187;SDS011;7175;51.978;5.330;2023-05-10T11:31:22;19.70;;;18.10;;
14187;SDS011;7175;51.978;5.330;2023-05-10T11:33:54;19.40;;;17.80;;
14187;SDS011;7175;51.978;5.330;2023-05-10T11:36:23;19.47;;;17.87;;
14187;SDS011;7175;51.978;5.330;2023-05-10T11:38:53;19.83;;;18.23;;
14187;SDS011;7175;51.978;5.330;2023-05-10T11:41:23;19.73;;;18.13;;
14187;SDS011;7175;51.978;5.330;2023-05-10T11:43:52;18.83;;;17.33;;
14187;SDS011;7175;51.978;5.330;2023-05-10T11:46:23;20.27;;;18.67;;
14187;SDS011;7175;51.978;5.330;2023-05-10T11:48:55;19.70;;;18.10;;
14187;SDS011;7175;51.978;5.330;2023-05-10T11:51:27;19.70;;;18.10;;
14187;SDS011;7175;51.978;5.330;2023-05-10T11:53:56;19.17;;;17.63;;
14187;SDS011;7175;51.978;5.330;2023-05-10T11:56:24;19.17;;;17.57;;
14187;SDS011;7175;51.978;5.330;2023-05-10T11:58:55;19.30;;;17.80;;
14187;SDS011;7175;51.978;5.330;2023-05-10T12:01:24;19.07;;;17.57;;
14187;SDS011;7175;51.978;5.330;2023-05-10T12:03:56;19.00;;;17.50;;
14187;SDS011;7175;51.978;5.330;2023-05-10T12:06:27;20.30;;;18.70;;
14187;SDS011;7175;51.978;5.330;2023-05-10T12:08:57;19.40;;;17.90;;
14187;SDS011;7175;51.978;5.330;2023-05-10T12:11:27;19.27;;;17.77;;
14187;SDS011;7175;51.978;5.330;2023-05-10T12:13:57;19.30;;;17.70;;
14187;SDS011;7175;51.978;5.330;2023-05-10T12:16:28;19.30;;;17.80;;
14187;SDS011;7175;51.978;5.330;2023-05-10T12:18:57;19.70;;;18.10;;
14187;SDS011;7175;51.978;5.330;2023-05-10T12:21:27;19.80;;;18.10;;
14187;SDS011;7175;51.978;5.330;2023-05-10T12:23:59;20.17;;;18.47;;
14187;SDS011;7175;51.978;5.330;2023-05-10T12:26:29;19.50;;;18.00;;
14187;SDS011;7175;51.978;5.330;2023-05-10T12:31:49;18.87;;;17.27;;
14187;SDS011;7175;51.978;5.330;2023-05-10T12:34:24;19.30;;;17.70;;
14187;SDS011;7175;51.978;5.330;2023-05-10T12:36:54;18.67;;;17.17;;
14187;SDS011;7175;51.978;5.330;2023-05-10T12:39:23;18.30;;;16.87;;
14187;SDS011;7175;51.978;5.330;2023-05-10T12:41:51;19.40;;;17.90;;
14187;SDS011;7175;51.978;5.330;2023-05-10T12:44:21;19.10;;;17.60;;
14187;SDS011;7175;51.978;5.330;2023-05-10T12:46:49;19.00;;;17.50;;
14187;SDS011;7175;51.978;5.330;2023-05-10T12:49:18;19.30;;;17.70;;
14187;SDS011;7175;51.978;5.330;2023-05-10T12:51:46;18.53;;;17.03;;
14187;SDS011;7175;51.978;5.330;2023-05-10T12:54:14;18.40;;;16.90;;
14187;SDS011;7175;51.978;5.330;2023-05-10T12:56:42;18.30;;;16.83;;
14187;SDS011;7175;51.978;5.330;2023-05-10T12:59:10;18.67;;;17.17;;
14187;SDS011;7175;51.978;5.330;2023-05-10T13:01:40;18.93;;;17.43;;
14187;SDS011;7175;51.978;5.330;2023-05-10T13:04:08;19.27;;;17.77;;
14187;SDS011;7175;51.978;5.330;2023-05-10T13:06:37;18.90;;;17.30;;
14187;SDS011;7175;51.978;5.330;2023-05-10T13:09:05;19.50;;;17.90;;
14187;SDS011;7175;51.978;5.330;2023-05-10T13:11:33;18.97;;;17.37;;
14187;SDS011;7175;51.978;5.330;2023-05-10T13:14:01;18.60;;;17.10;;
14187;SDS011;7175;51.978;5.330;2023-05-10T13:16:30;18.40;;;16.90;;
14187;SDS011;7175;51.978;5.330;2023-05-10T13:19:00;18.90;;;17.40;;
14187;SDS011;7175;51.978;5.330;2023-05-10T13:21:29;19.30;;;17.80;;
14187;SDS011;7175;51.978;5.330;2023-05-10T13:23:57;19.20;;;17.70;;
14187;SDS011;7175;51.978;5.330;2023-05-10T13:26:26;20.20;;;18.60;;
14187;SDS011;7175;51.978;5.330;2023-05-10T13:28:54;22.30;;;20.40;;
14187;SDS011;7175;51.978;5.330;2023-05-10T13:31:22;20.77;;;19.17;;
14187;SDS011;7175;51.978;5.330;2023-05-10T13:33:51;20.03;;;18.43;;
14187;SDS011;7175;51.978;5.330;2023-05-10T13:36:20;22.07;;;20.07;;
14187;SDS011;7175;51.978;5.330;2023-05-10T13:38:49;22.00;;;20.20;;
14187;SDS011;7175;51.978;5.330;2023-05-10T13:41:17;21.50;;;19.70;;
14187;SDS011;7175;51.978;5.330;2023-05-10T13:43:45;22.57;;;20.67;;
14187;SDS011;7175;51.978;5.330;2023-05-10T13:46:14;23.07;;;21.10;;
14187;SDS011;7175;51.978;5.330;2023-05-10T13:48:43;25.73;;;23.57;;
14187;SDS011;7175;51.978;5.330;2023-05-10T13:51:11;28.30;;;26.00;;
14187;SDS011;7175;51.978;5.330;2023-05-10T13:53:40;30.20;;;27.80;;
14187;SDS011;7175;51.978;5.330;2023-05-10T13:56:08;33.97;;;31.37;;
14187;SDS011;7175;51.978;5.330;2023-05-10T13:58:36;35.00;;;32.30;;
14187;SDS011;7175;51.978;5.330;2023-05-10T14:01:06;35.43;;;32.73;;
14187;SDS011;7175;51.978;5.330;2023-05-10T14:03:34;39.63;;;36.63;;
14187;SDS011;7175;51.978;5.330;2023-05-10T14:06:02;41.50;;;38.40;;
14187;SDS011;7175;51.978;5.330;2023-05-10T14:08:30;42.53;;;39.33;;
14187;SDS011;7175;51.978;5.330;2023-05-10T14:11:00;41.17;;;37.97;;
14187;SDS011;7175;51.978;5.330;2023-05-10T14:13:28;40.50;;;37.47;;
14187;SDS011;7175;51.978;5.330;2023-05-10T14:15:56;41.87;;;38.73;;
14187;SDS011;7175;51.978;5.330;2023-05-10T14:18:26;46.50;;;43.10;;
14187;SDS011;7175;51.978;5.330;2023-05-10T14:20:55;42.17;;;39.07;;
14187;SDS011;7175;51.978;5.330;2023-05-10T14:23:23;44.67;;;41.17;;
14187;SDS011;7175;51.978;5.330;2023-05-10T14:25:52;46.47;;;43.07;;
14187;SDS011;7175;51.978;5.330;2023-05-10T14:28:21;49.07;;;45.43;;
14187;SDS011;7175;51.978;5.330;2023-05-10T14:30:50;43.50;;;40.30;;
14187;SDS011;7175;51.978;5.330;2023-05-10T14:33:19;47.30;;;43.90;;
14187;SDS011;7175;51.978;5.330;2023-05-10T14:35:47;50.47;;;46.97;;
14187;SDS011;7175;51.978;5.330;2023-05-10T14:38:15;52.57;;;48.97;;
14187;SDS011;7175;51.978;5.330;2023-05-10T14:40:43;55.30;;;51.50;;
14187;SDS011;7175;51.978;5.330;2023-05-10T14:43:11;56.70;;;52.80;;
14187;SDS011;7175;51.978;5.330;2023-05-10T14:45:41;59.40;;;55.40;;
14187;SDS011;7175;51.978;5.330;2023-05-10T14:48:09;52.30;;;48.60;;